Time;durP1;ratioP1;P1;durP2;ratioP2;P2;SDS_P1;SDS_P2;PMS_P1;PMS_P2;Temp;Humidity;BMP_temperature;BMP_pressure;BME280_temperature;BME280_humidity;BME280_pressure;Samples;Min_cycle;Max_cycle;Signal;HPM_P1;HPM_P2
2023/10/09 00:03:00;;;;;;;;;;;;;;;;;;5027069;28;5025;-60
2023/10/09 00:05:38;;;;;;;;;;;;;;;;;;5021290;28;5182;-60
2023/10/09 00:08:04;;;;;;;;;;;;;;;;;;5019887;28;3244;-60
2023/10/09 00:10:38;;;;;;;;;;;;;;;;;;5020670;28;5179;-60
2023/10/09 00:13:03;;;;;;;;;;;;;;;;;;5022097;28;4665;-60
2023/10/09 00:15:32;;;;;;;;;;;;;;;;;;5018478;28;4944;-60
2023/10/09 00:17:58;;;;;;;;;;;;;;;;;;5020312;28;5050;-60
2023/10/09 00:20:38;;;;;;;;;;;;;;;;;;5026247;28;5125;-60
2023/10/09 00:23:08;;;;;;;;;;;;;;;;;;5020675;28;3326;-60
2023/10/09 00:25:36;;;;;;;;;;;;;;;;;;5031464;28;4904;-60
2023/10/09 00:28:05;;;;;;;;;;;;;;;;;;5021586;28;5090;-59
2023/10/09 00:30:31;;;;;;;;;;;;;;;;;;5036478;28;5209;-59
2023/10/09 00:33:00;;;;;;;;;;;;;;;;;;5014658;28;5194;-60
2023/10/09 00:38:24;;;;;;;;;;;;;;;;;;5017527;28;3618;-59
2023/10/09 00:41:10;;;;;;;;;;;;;;;;;;5018282;28;4761;-59
2023/10/09 00:43:37;;;;;;;;;;;;;;;;;;5028705;28;4593;-60
2023/10/09 00:46:03;;;;;;;;;;;;;;;;;;5027236;28;5058;-60
2023/10/09 00:48:37;;;;;;;;;;;;;;;;;;5017757;28;5095;-60
2023/10/09 00:51:15;;;;;;;;;;;;;;;;;;5010351;28;4780;-60
2023/10/09 00:53:40;;;;;;;;;;;;;;;;;;5023963;28;4483;-60
2023/10/09 00:56:19;;;;;;;;;;;;;;;;;;5019136;28;3591;-60
2023/10/09 00:58:55;;;;;;;;;;;;;;;;;;5032807;28;5163;-59
2023/10/09 01:01:26;;;;;;;;;;;;;;;;;;4995667;28;5158;-59
2023/10/09 01:03:51;;;;;;;;;;;;;;;;;;5000727;28;5104;-60
2023/10/09 01:06:20;;;;;;;;;;;;;;;;;;4998399;28;5110;-60
2023/10/09 01:08:56;;;;;;;;;;;;;;;;;;4994707;28;5153;-60
2023/10/09 01:11:23;;;;;;;;;;;;;;;;;;4997619;28;5172;-60
2023/10/09 01:16:17;;;;;;;;;;;;;;;;;;4992425;28;5009;-60
2023/10/09 01:18:49;;;;;;;;;;;;;;;;;;5006864;28;4861;-60
2023/10/09 01:21:14;;;;;;;;;;;;;;;;;;4991687;28;5038;-59
2023/10/09 01:26:30;;;;;;;;;;;;;;;;;;4988456;28;5013;-60
2023/10/09 01:29:00;;;;;;;;;;;;;;;;;;5002099;28;3390;-60
2023/10/09 01:31:37;;;;;;;;;;;;;;;;;;4990936;28;5166;-60
2023/10/09 01:34:06;;;;;;;;;;;;;;;;;;4997112;28;5443;-60
2023/10/09 01:36:31;;;;;;;;;;;;;;;;;;4997482;28;5109;-60
2023/10/09 01:39:01;;;;;;;;;;;;;;;;;;4995190;28;4510;-60
2023/10/09 01:41:27;;;;;;;;;;;;;;;;;;4998029;28;5097;-60
2023/10/09 01:44:00;;;;;;;;;;;;;;;;;;5013401;28;3340;-59
2023/10/09 01:46:25;;;;;;;;;;;;;;;;;;4993881;28;5087;-60
2023/10/09 01:48:53;;;;;;;;;;;;;;;;;;4998578;28;4453;-60
2023/10/09 01:51:20;;;;;;;;;;;;;;;;;;4977135;28;5040;-60
2023/10/09 01:53:53;;;;;;;;;;;;;;;;;;4995274;28;4917;-59
2023/10/09 01:56:19;;;;;;;;;;;;;;;;;;4977657;28;4596;-60
2023/10/09 01:58:46;;;;;;;;;;;;;;;;;;4993603;28;3303;-60
2023/10/09 02:01:12;;;;;;;;;;;;;;;;;;5010724;28;5191;-59
2023/10/09 02:03:42;;;;;;;;;;;;;;;;;;5012849;28;5043;-59
2023/10/09 02:06:24;;;;;;;;;;;;;;;;;;5019700;28;5053;-59
2023/10/09 02:08:50;;;;;;;;;;;;;;;;;;5013834;28;4945;-59
2023/10/09 02:11:24;;;;;;;;;;;;;;;;;;5014321;28;5127;-59
2023/10/09 02:13:53;;;;;;;;;;;;;;;;;;5015343;28;3383;-58
2023/10/09 02:16:28;;;;;;;;;;;;;;;;;;5005565;28;5250;-59
2023/10/09 02:18:53;;;;;;;;;;;;;;;;;;5010732;28;4809;-58
2023/10/09 02:21:32;;;;;;;;;;;;;;;;;;5002843;28;4577;-59
2023/10/09 02:23:57;;;;;;;;;;;;;;;;;;5015452;28;5101;-59
2023/10/09 02:26:26;;;;;;;;;;;;;;;;;;5022117;28;4759;-59
2023/10/09 02:29:04;;;;;;;;;;;;;;;;;;5022130;28;3319;-59
2023/10/09 02:31:40;;;;;;;;;;;;;;;;;;5023945;28;5106;-59
2023/10/09 02:34:05;;;;;;;;;;;;;;;;;;5043577;28;4964;-59
2023/10/09 02:36:30;;;;;;;;;;;;;;;;;;5019091;28;5038;-61
2023/10/09 02:38:56;;;;;;;;;;;;;;;;;;5017838;28;5101;-61
2023/10/09 02:41:22;;;;;;;;;;;;;;;;;;5015002;28;4704;-59
2023/10/09 02:43:50;;;;;;;;;;;;;;;;;;5022621;28;3314;-59
2023/10/09 02:46:18;;;;;;;;;;;;;;;;;;5022271;28;4938;-59
2023/10/09 02:48:50;;;;;;;;;;;;;;;;;;5013606;28;5119;-58
2023/10/09 02:51:31;;;;;;;;;;;;;;;;;;5025056;28;4644;-58
2023/10/09 02:53:57;;;;;;;;;;;;;;;;;;5016022;28;4875;-59
2023/10/09 02:59:21;;;;;;;;;;;;;;;;;;4989339;28;5200;-59
2023/10/09 03:01:47;;;;;;;;;;;;;;;;;;5013594;28;3287;-58
2023/10/09 03:04:14;;;;;;;;;;;;;;;;;;5027387;28;4421;-59
2023/10/09 03:06:53;;;;;;;;;;;;;;;;;;5037018;28;4589;-59
2023/10/09 03:09:26;;;;;;;;;;;;;;;;;;5017694;28;5069;-59
2023/10/09 03:11:53;;;;;;;;;;;;;;;;;;5014352;28;5172;-59
2023/10/09 03:14:24;;;;;;;;;;;;;;;;;;5024328;28;5119;-59
2023/10/09 03:16:50;;;;;;;;;;;;;;;;;;5029989;28;5015;-59
2023/10/09 03:19:15;;;;;;;;;;;;;;;;;;5022009;28;5050;-59
2023/10/09 03:21:40;;;;;;;;;;;;;;;;;;5014877;28;5215;-59
2023/10/09 03:24:08;;;;;;;;;;;;;;;;;;5022955;28;5004;-58
2023/10/09 03:26:33;;;;;;;;;;;;;;;;;;5019705;28;5137;-58
2023/10/09 03:29:01;;;;;;;;;;;;;;;;;;5022445;28;3345;-60
2023/10/09 03:31:27;;;;;;;;;;;;;;;;;;5020970;28;5385;-60
2023/10/09 03:33:52;;;;;;;;;;;;;;;;;;5025307;28;4996;-60
2023/10/09 03:36:17;;;;;;;;;;;;;;;;;;5021322;28;4926;-60
2023/10/09 03:38:44;;;;;;;;;;;;;;;;;;5023054;28;5185;-60
2023/10/09 03:41:12;;;;;;;;;;;;;;;;;;5021222;28;3531;-60
2023/10/09 03:43:41;;;;;;;;;;;;;;;;;;5023454;28;4992;-60
2023/10/09 03:46:21;;;;;;;;;;;;;;;;;;5005226;28;5181;-60
2023/10/09 03:48:49;;;;;;;;;;;;;;;;;;5028198;28;5124;-60
2023/10/09 03:51:21;;;;;;;;;;;;;;;;;;5010038;28;5088;-60
2023/10/09 03:53:50;;;;;;;;;;;;;;;;;;5025369;28;5030;-60
2023/10/09 03:56:16;;;;;;;;;;;;;;;;;;5007710;28;4559;-60
2023/10/09 03:58:45;;;;;;;;;;;;;;;;;;5022967;28;3323;-60
2023/10/09 04:01:16;;;;;;;;;;;;;;;;;;5018405;28;5334;-60
2023/10/09 04:03:42;;;;;;;;;;;;;;;;;;5043700;28;4485;-60
2023/10/09 04:06:09;;;;;;;;;;;;;;;;;;5021539;28;5113;-60
2023/10/09 04:08:35;;;;;;;;;;;;;;;;;;5022973;28;5067;-60
2023/10/09 04:11:04;;;;;;;;;;;;;;;;;;5025888;28;3495;-60
2023/10/09 04:13:34;;;;;;;;;;;;;;;;;;5030046;28;5047;-60
2023/10/09 04:16:10;;;;;;;;;;;;;;;;;;5022839;28;4492;-60
2023/10/09 04:18:38;;;;;;;;;;;;;;;;;;5026409;28;4908;-60
2023/10/09 04:21:18;;;;;;;;;;;;;;;;;;5026961;28;5201;-60
2023/10/09 04:26:45;;;;;;;;;;;;;;;;;;4987625;28;4704;-60
2023/10/09 04:30:00;;;;;;;;;;;;;;;;;;5033856;28;1261;-60
2023/10/09 04:32:00;;;;;;;;;;;;;;;;;;5016224;28;5896;-60
2023/10/09 04:34:28;;;;;;;;;;;;;;;;;;5036183;28;4712;-60
2023/10/09 04:37:36;;;;;;;;;;;;;;;;;;5030879;28;4724;-60
2023/10/09 04:39:49;;;;;;;;;;;;;;;;;;5025021;28;5111;-60
2023/10/09 04:42:26;;;;;;;;;;;;;;;;;;5021551;28;4770;-60
2023/10/09 04:47:35;;;;;;;;;;;;;;;;;;5006876;28;5114;-60
2023/10/09 04:57:38;;;;;;;;;;;;;;;;;;5023427;28;4606;-60
2023/10/09 05:00:06;;;;;;;;;;;;;;;;;;5017066;28;4538;-60
2023/10/09 05:02:37;;;;;;;;;;;;;;;;;;5012644;28;4512;-60
2023/10/09 05:05:16;;;;;;;;;;;;;;;;;;5019180;28;3540;-60
2023/10/09 05:07:54;;;;;;;;;;;;;;;;;;5010125;28;5097;-60
2023/10/09 05:10:24;;;;;;;;;;;;;;;;;;5015543;28;4908;-60
2023/10/09 05:12:56;;;;;;;;;;;;;;;;;;5026820;28;4644;-60
2023/10/09 05:15:29;;;;;;;;;;;;;;;;;;5019682;28;5091;-60
2023/10/09 05:17:56;;;;;;;;;;;;;;;;;;5036021;28;5127;-60
2023/10/09 05:23:23;;;;;;;;;;;;;;;;;;5026578;28;3668;-61
2023/10/09 05:25:53;;;;;;;;;;;;;;;;;;5016421;28;5944;-60
2023/10/09 05:28:30;;;;;;;;;;;;;;;;;;5020374;28;4729;-60
2023/10/09 05:31:08;;;;;;;;;;;;;;;;;;5010341;28;5025;-60
2023/10/09 05:33:37;;;;;;;;;;;;;;;;;;5020006;28;5028;-60
2023/10/09 05:36:31;;;;;;;;;;;;;;;;;;5016811;28;5145;-60
2023/10/09 05:38:59;;;;;;;;;;;;;;;;;;5016567;28;5066;-59
2023/10/09 05:41:51;;;;;;;;;;;;;;;;;;5010738;28;4957;-60
2023/10/09 05:47:29;;;;;;;;;;;;;;;;;;5017401;28;3583;-58
2023/10/09 05:50:01;;;;;;;;;;;;;;;;;;5008090;28;4651;-56
2023/10/09 05:55:48;;;;;;;;;;;;;;;;;;5005160;28;4920;-58
2023/10/09 06:04:49;;;;;;;;;;;;;;;;;;5018543;28;4681;-57
2023/10/09 06:06:42;;;;;;;;;;;;;;;;;;5007479;28;5195;-58
2023/10/09 06:14:04;;;;;;;;;;;;;;;;;;5018261;28;3223;-57
2023/10/09 06:19:26;;;;;;;;;;;;;;;;;;5016538;28;5051;-56
2023/10/09 06:25:17;;;;;;;;;;;;;;;;;;5002506;28;5102;-58
2023/10/09 06:27:27;;;;;;;;;;;;;;;;;;4981608;28;4821;-57
2023/10/09 06:30:24;;;;;;;;;;;;;;;;;;5014037;28;4694;-57
2023/10/09 06:35:30;;;;;;;;;;;;;;;;;;5017616;28;5070;-56
2023/10/09 06:43:08;;;;;;;;;;;;;;;;;;5018296;28;5057;-56
2023/10/09 06:45:43;;;;;;;;;;;;;;;;;;5022049;28;5191;-57
2023/10/09 06:48:40;;;;;;;;;;;;;;;;;;5021417;28;4665;-57
2023/10/09 06:51:03;;;;;;;;;;;;;;;;;;5017209;28;5108;-57
2023/10/09 06:53:58;;;;;;;;;;;;;;;;;;5014619;28;5121;-57
2023/10/09 06:59:05;;;;;;;;;;;;;;;;;;5005016;28;4661;-58
2023/10/09 07:01:42;;;;;;;;;;;;;;;;;;5016055;28;5382;-56
2023/10/09 07:04:18;;;;;;;;;;;;;;;;;;5017496;28;5137;-56
2023/10/09 07:14:32;;;;;;;;;;;;;;;;;;5019458;28;3562;-57
2023/10/09 07:16:57;;;;;;;;;;;;;;;;;;5014956;28;4924;-57
2023/10/09 07:22:29;;;;;;;;;;;;;;;;;;4922298;29;4491;-56
2023/10/09 07:24:58;;;;;;;;;;;;;;;;;;4996084;28;5049;-58
2023/10/09 07:32:54;;;;;;;;;;;;;;;;;;5012610;28;5105;-57
2023/10/09 07:35:45;;;;;;;;;;;;;;;;;;5011798;28;5045;-57
2023/10/09 07:38:08;;;;;;;;;;;;;;;;;;5023130;28;3243;-56
2023/10/09 07:40:51;;;;;;;;;;;;;;;;;;5019407;28;5026;-56
2023/10/09 07:43:17;;;;;;;;;;;;;;;;;;5018061;28;5099;-57
2023/10/09 07:48:16;;;;;;;;;;;;;;;;;;5018575;28;4718;-56
2023/10/09 07:50:48;;;;;;;;;;;;;;;;;;5004928;28;5114;-56
2023/10/09 07:53:26;;;;;;;;;;;;;;;;;;5015032;28;3618;-57
2023/10/09 07:56:09;;;;;;;;;;;;;;;;;;5013099;28;5183;-56
2023/10/09 07:58:46;;;;;;;;;;;;;;;;;;5015485;28;4498;-56
2023/10/09 08:01:34;;;;;;;;;;;;;;;;;;5016309;28;4480;-57
2023/10/09 08:04:10;;;;;;;;;;;;;;;;;;5013763;28;5144;-58
2023/10/09 08:06:39;;;;;;;;;;;;;;;;;;5018333;28;4880;-57
2023/10/09 08:17:11;;;;;;;;;;;;;;;;;;5015381;28;4964;-56
2023/10/09 08:19:51;;;;;;;;;;;;;;;;;;5019613;28;4842;-55
2023/10/09 08:22:42;;;;;;;;;;;;;;;;;;5017348;28;4691;-56
2023/10/09 08:25:03;;;;;;;;;;;;;;;;;;5020641;28;4915;-56
2023/10/09 08:33:00;;;;;;;;;;;;;;;;;;5004654;28;4879;-56
2023/10/09 08:35:47;;;;;;;;;;;;;;;;;;5012577;28;5088;-56
2023/10/09 08:38:13;;;;;;;;;;;;;;;;;;5015199;28;3249;-55
2023/10/09 08:40:42;;;;;;;;;;;;;;;;;;5016370;28;5195;-55
2023/10/09 08:43:14;;;;;;;;;;;;;;;;;;5020299;28;5031;-55
2023/10/09 08:45:39;;;;;;;;;;;;;;;;;;5017137;28;4624;-56
2023/10/09 08:48:08;;;;;;;;;;;;;;;;;;5016009;28;4503;-56
2023/10/09 08:50:34;;;;;;;;;;;;;;;;;;5018386;28;5136;-57
2023/10/09 08:53:00;;;;;;;;;;;;;;;;;;5023819;28;3223;-58
2023/10/09 08:55:25;;;;;;;;;;;;;;;;;;5012681;28;4856;-57
2023/10/09 08:57:52;;;;;;;;;;;;;;;;;;5026924;28;5120;-58
2023/10/09 09:00:23;;;;;;;;;;;;;;;;;;5011754;28;5275;-57
2023/10/09 09:02:49;;;;;;;;;;;;;;;;;;5015000;28;5020;-57
2023/10/09 09:05:18;;;;;;;;;;;;;;;;;;5014932;28;3418;-59
2023/10/09 09:07:43;;;;;;;;;;;;;;;;;;5017087;28;4633;-58
2023/10/09 09:10:18;;;;;;;;;;;;;;;;;;5011969;28;5569;-57
2023/10/09 09:12:43;;;;;;;;;;;;;;;;;;5032351;28;5069;-59
2023/10/09 09:15:21;;;;;;;;;;;;;;;;;;5012033;28;5192;-58
2023/10/09 09:17:50;;;;;;;;;;;;;;;;;;5015065;28;5224;-55
2023/10/09 09:20:27;;;;;;;;;;;;;;;;;;5014441;28;3575;-57
2023/10/09 09:22:56;;;;;;;;;;;;;;;;;;5013851;28;5094;-56
2023/10/09 09:25:24;;;;;;;;;;;;;;;;;;5012977;28;4977;-56
2023/10/09 09:28:09;;;;;;;;;;;;;;;;;;5013271;28;5110;-57
2023/10/09 09:30:35;;;;;;;;;;;;;;;;;;5012831;28;5035;-59
2023/10/09 09:34:03;;;;;;;;;;;;;;;;;;5017627;28;5131;-56
2023/10/09 09:36:11;;;;;;;;;;;;;;;;;;5011812;28;4928;-55
2023/10/09 09:38:47;;;;;;;;;;;;;;;;;;5014910;28;4969;-56
2023/10/09 09:41:13;;;;;;;;;;;;;;;;;;5002688;28;3187;-57
2023/10/09 09:43:41;;;;;;;;;;;;;;;;;;5014051;28;5235;-59
2023/10/09 09:46:10;;;;;;;;;;;;;;;;;;5003307;28;4609;-57
2023/10/09 09:48:44;;;;;;;;;;;;;;;;;;5005591;28;5069;-58
2023/10/09 09:51:12;;;;;;;;;;;;;;;;;;5016167;28;5037;-59
2023/10/09 09:53:37;;;;;;;;;;;;;;;;;;5013908;28;4524;-58
2023/10/09 09:56:03;;;;;;;;;;;;;;;;;;4989342;28;3582;-59
2023/10/09 09:58:41;;;;;;;;;;;;;;;;;;5015210;28;5041;-57
2023/10/09 10:01:14;;;;;;;;;;;;;;;;;;5013523;28;4545;-58
2023/10/09 10:03:43;;;;;;;;;;;;;;;;;;5016695;28;5167;-58
2023/10/09 10:06:09;;;;;;;;;;;;;;;;;;5019484;28;5015;-59
2023/10/09 10:08:35;;;;;;;;;;;;;;;;;;5016885;28;5049;-58
2023/10/09 10:11:13;;;;;;;;;;;;;;;;;;5016167;28;3620;-58
2023/10/09 10:13:42;;;;;;;;;;;;;;;;;;5018424;28;5082;-57
2023/10/09 10:16:20;;;;;;;;;;;;;;;;;;5008363;28;4617;-57
2023/10/09 10:19:06;;;;;;;;;;;;;;;;;;5010542;28;4707;-59
2023/10/09 10:24:10;;;;;;;;;;;;;;;;;;5020735;28;5126;-57
2023/10/09 10:26:35;;;;;;;;;;;;;;;;;;5024356;28;5048;-57
2023/10/09 10:29:22;;;;;;;;;;;;;;;;;;5014031;28;3581;-57
2023/10/09 10:31:54;;;;;;;;;;;;;;;;;;5018132;28;4664;-57
2023/10/09 10:34:23;;;;;;;;;;;;;;;;;;5011097;28;4975;-58
2023/10/09 10:36:52;;;;;;;;;;;;;;;;;;5023612;28;5054;-56
2023/10/09 10:39:21;;;;;;;;;;;;;;;;;;5010329;28;5177;-55
2023/10/09 10:41:54;;;;;;;;;;;;;;;;;;5014772;28;5118;-57
2023/10/09 10:44:36;;;;;;;;;;;;;;;;;;5008958;28;4536;-60
2023/10/09 10:47:03;;;;;;;;;;;;;;;;;;5011825;28;3331;-68
2023/10/09 10:49:36;;;;;;;;;;;;;;;;;;5014792;28;5085;-69
2023/10/09 10:52:15;;;;;;;;;;;;;;;;;;5028472;28;5339;-70
2023/10/09 10:57:19;;;;;;;;;;;;;;;;;;5013429;28;5099;-67
2023/10/09 10:59:44;;;;;;;;;;;;;;;;;;5021543;28;4671;-72
2023/10/09 11:04:47;;;;;;;;;;;;;;;;;;5007520;28;4996;-66
2023/10/09 11:07:15;;;;;;;;;;;;;;;;;;4999663;28;4652;-70
2023/10/09 11:12:42;;;;;;;;;;;;;;;;;;5013488;28;5267;-65
2023/10/09 11:15:08;;;;;;;;;;;;;;;;;;5015496;28;4612;-64
2023/10/09 11:17:35;;;;;;;;;;;;;;;;;;5014174;28;5097;-62
2023/10/09 11:20:22;;;;;;;;;;;;;;;;;;5010643;28;3480;-73
2023/10/09 11:25:31;;;;;;;;;;;;;;;;;;5019658;28;5222;-66
2023/10/09 11:27:56;;;;;;;;;;;;;;;;;;5018076;28;5436;-61
2023/10/09 11:30:32;;;;;;;;;;;;;;;;;;5016413;28;4736;-62
2023/10/09 11:33:04;;;;;;;;;;;;;;;;;;5014019;28;5036;-65
2023/10/09 11:35:34;;;;;;;;;;;;;;;;;;5021471;28;5142;-63
2023/10/09 11:38:00;;;;;;;;;;;;;;;;;;5029374;28;2158;-61
2023/10/09 11:41:18;;;;;;;;;;;;;;;;;;5030359;28;5043;-66
2023/10/09 11:43:51;;;;;;;;;;;;;;;;;;5023879;28;4746;-64
2023/10/09 11:46:11;;;;;;;;;;;;;;;;;;5019715;28;4658;-65
2023/10/09 11:48:49;;;;;;;;;;;;;;;;;;5011837;28;5002;-73
2023/10/09 11:51:21;;;;;;;;;;;;;;;;;;5016470;28;5132;-68
2023/10/09 11:53:49;;;;;;;;;;;;;;;;;;5020282;28;5066;-74
2023/10/09 11:56:27;;;;;;;;;;;;;;;;;;5019639;28;2813;-64
2023/10/09 11:58:53;;;;;;;;;;;;;;;;;;5017813;28;5223;-62
2023/10/09 12:01:42;;;;;;;;;;;;;;;;;;5023743;28;4923;-66
2023/10/09 12:04:09;;;;;;;;;;;;;;;;;;5022499;28;5142;-64
2023/10/09 12:06:35;;;;;;;;;;;;;;;;;;5020096;28;4706;-65
2023/10/09 12:09:00;;;;;;;;;;;;;;;;;;5019642;28;4438;-66
2023/10/09 12:11:28;;;;;;;;;;;;;;;;;;5026706;28;5051;-68
2023/10/09 12:13:56;;;;;;;;;;;;;;;;;;5033119;28;3424;-61
2023/10/09 12:16:22;;;;;;;;;;;;;;;;;;5022828;28;4885;-61
2023/10/09 12:18:52;;;;;;;;;;;;;;;;;;5022692;28;5073;-69
2023/10/09 12:21:18;;;;;;;;;;;;;;;;;;5030427;28;5086;-67
2023/10/09 12:23:47;;;;;;;;;;;;;;;;;;5035786;28;4967;-70
2023/10/09 12:26:14;;;;;;;;;;;;;;;;;;5019196;28;3386;-65
2023/10/09 12:28:40;;;;;;;;;;;;;;;;;;5025167;28;5023;-66
2023/10/09 12:31:05;;;;;;;;;;;;;;;;;;5024219;28;5110;-62
2023/10/09 12:33:30;;;;;;;;;;;;;;;;;;5024570;28;5179;-65
2023/10/09 12:35:59;;;;;;;;;;;;;;;;;;5022625;28;5153;-69
2023/10/09 12:38:31;;;;;;;;;;;;;;;;;;5029966;28;5047;-61
2023/10/09 12:41:08;;;;;;;;;;;;;;;;;;5021337;28;3284;-66
2023/10/09 12:43:37;;;;;;;;;;;;;;;;;;5020870;28;4816;-63
2023/10/09 12:46:06;;;;;;;;;;;;;;;;;;5020660;28;5164;-57
2023/10/09 12:48:31;;;;;;;;;;;;;;;;;;5021021;28;4996;-62
2023/10/09 12:50:57;;;;;;;;;;;;;;;;;;5023553;28;4530;-62
2023/10/09 12:53:22;;;;;;;;;;;;;;;;;;5018995;28;5506;-62
2023/10/09 12:55:48;;;;;;;;;;;;;;;;;;5026644;28;3261;-61
2023/10/09 12:58:15;;;;;;;;;;;;;;;;;;5011740;28;5124;-61
2023/10/09 13:00:48;;;;;;;;;;;;;;;;;;5012394;28;5127;-64
2023/10/09 13:03:17;;;;;;;;;;;;;;;;;;5030143;28;5401;-62
2023/10/09 13:05:56;;;;;;;;;;;;;;;;;;5018636;28;5108;-63
2023/10/09 13:08:22;;;;;;;;;;;;;;;;;;5010074;28;4527;-63
2023/10/09 13:11:00;;;;;;;;;;;;;;;;;;5008432;28;3261;-61
2023/10/09 13:13:39;;;;;;;;;;;;;;;;;;5012414;28;4516;-61
2023/10/09 13:16:06;;;;;;;;;;;;;;;;;;5010254;28;4487;-61
2023/10/09 13:18:32;;;;;;;;;;;;;;;;;;5020470;28;5230;-60
2023/10/09 13:20:57;;;;;;;;;;;;;;;;;;5031750;28;4951;-60
2023/10/09 13:23:27;;;;;;;;;;;;;;;;;;5030298;28;5025;-61
2023/10/09 13:25:53;;;;;;;;;;;;;;;;;;5021130;28;2263;-63
2023/10/09 13:28:20;;;;;;;;;;;;;;;;;;5019850;28;5120;-63
2023/10/09 13:30:49;;;;;;;;;;;;;;;;;;5034804;28;5032;-63
2023/10/09 13:33:16;;;;;;;;;;;;;;;;;;5034468;28;5402;-63
2023/10/09 13:35:50;;;;;;;;;;;;;;;;;;5020038;28;5125;-63
2023/10/09 13:38:16;;;;;;;;;;;;;;;;;;5027801;28;1221;-62
2023/10/09 13:40:42;;;;;;;;;;;;;;;;;;5028357;28;4960;-63
2023/10/09 13:43:13;;;;;;;;;;;;;;;;;;5026737;28;5053;-63
2023/10/09 13:45:39;;;;;;;;;;;;;;;;;;5028684;28;4710;-63
2023/10/09 13:48:04;;;;;;;;;;;;;;;;;;5008737;28;4540;-63
2023/10/09 13:50:32;;;;;;;;;;;;;;;;;;5023767;28;4781;-63
2023/10/09 13:52:58;;;;;;;;;;;;;;;;;;5028190;28;3298;-64
2023/10/09 13:55:31;;;;;;;;;;;;;;;;;;5020592;28;5081;-63
2023/10/09 13:57:57;;;;;;;;;;;;;;;;;;5048660;28;5075;-63
2023/10/09 14:00:41;;;;;;;;;;;;;;;;;;5030043;28;5241;-63
2023/10/09 14:03:13;;;;;;;;;;;;;;;;;;5020571;28;6098;-63
2023/10/09 14:05:51;;;;;;;;;;;;;;;;;;5009313;28;4875;-64
2023/10/09 14:08:16;;;;;;;;;;;;;;;;;;5020681;28;5415;-63
2023/10/09 14:10:42;;;;;;;;;;;;;;;;;;5031948;28;1313;-63
2023/10/09 14:13:12;;;;;;;;;;;;;;;;;;5029060;28;5077;-61
2023/10/09 14:15:41;;;;;;;;;;;;;;;;;;5020475;28;4552;-62
2023/10/09 14:18:08;;;;;;;;;;;;;;;;;;5023575;28;4891;-62
2023/10/09 14:20:34;;;;;;;;;;;;;;;;;;5016888;28;5034;-62
2023/10/09 14:23:06;;;;;;;;;;;;;;;;;;5018096;28;3395;-62
2023/10/09 14:25:32;;;;;;;;;;;;;;;;;;5012883;28;5519;-59
2023/10/09 14:27:58;;;;;;;;;;;;;;;;;;5014115;28;4998;-56
2023/10/09 14:30:30;;;;;;;;;;;;;;;;;;5005436;28;4982;-57
2023/10/09 14:32:56;;;;;;;;;;;;;;;;;;5010613;28;5916;-73
2023/10/09 14:35:26;;;;;;;;;;;;;;;;;;4985543;28;5105;-70
2023/10/09 14:37:53;;;;;;;;;;;;;;;;;;5012477;28;4097;-65
2023/10/09 14:40:29;;;;;;;;;;;;;;;;;;5015694;28;5043;-78
2023/10/09 14:42:54;;;;;;;;;;;;;;;;;;5017386;28;5085;-70
2023/10/09 14:45:21;;;;;;;;;;;;;;;;;;5010770;28;5194;-67
2023/10/09 14:47:46;;;;;;;;;;;;;;;;;;5016340;28;5019;-67
2023/10/09 14:50:13;;;;;;;;;;;;;;;;;;5022321;28;3526;-57
2023/10/09 14:52:38;;;;;;;;;;;;;;;;;;5000271;28;4842;-58
2023/10/09 14:55:04;;;;;;;;;;;;;;;;;;5018997;28;4997;-57
2023/10/09 14:57:33;;;;;;;;;;;;;;;;;;5014869;28;5149;-57
2023/10/09 14:59:59;;;;;;;;;;;;;;;;;;5017354;28;4527;-63
2023/10/09 15:02:24;;;;;;;;;;;;;;;;;;5017769;28;4939;-60
2023/10/09 15:04:50;;;;;;;;;;;;;;;;;;5014498;28;4006;-64
2023/10/09 15:07:15;;;;;;;;;;;;;;;;;;5014654;28;5060;-63
2023/10/09 15:09:41;;;;;;;;;;;;;;;;;;5013927;28;5155;-65
2023/10/09 15:12:06;;;;;;;;;;;;;;;;;;5016550;28;5115;-64
2023/10/09 15:14:32;;;;;;;;;;;;;;;;;;5024025;28;5016;-63
2023/10/09 15:16:57;;;;;;;;;;;;;;;;;;5010186;28;4900;-66
2023/10/09 15:19:29;;;;;;;;;;;;;;;;;;5014529;28;4823;-68
2023/10/09 15:21:54;;;;;;;;;;;;;;;;;;5017804;28;4761;-66
2023/10/09 15:24:20;;;;;;;;;;;;;;;;;;5016643;28;4523;-62
2023/10/09 15:26:52;;;;;;;;;;;;;;;;;;5014678;28;4504;-72
2023/10/09 15:29:27;;;;;;;;;;;;;;;;;;5016278;28;5157;-64
2023/10/09 15:31:54;;;;;;;;;;;;;;;;;;5017710;28;3746;-63
2023/10/09 15:34:20;;;;;;;;;;;;;;;;;;5014228;28;4878;-66
2023/10/09 15:36:48;;;;;;;;;;;;;;;;;;5019839;28;4666;-63
2023/10/09 15:39:14;;;;;;;;;;;;;;;;;;5018524;28;5179;-62
2023/10/09 15:41:40;;;;;;;;;;;;;;;;;;5021591;28;5026;-61
2023/10/09 15:44:05;;;;;;;;;;;;;;;;;;5047169;28;3451;-60
2023/10/09 15:46:34;;;;;;;;;;;;;;;;;;5018266;28;5101;-69
2023/10/09 15:49:00;;;;;;;;;;;;;;;;;;5003942;28;4880;-67
2023/10/09 15:51:25;;;;;;;;;;;;;;;;;;5006629;28;5232;-63
2023/10/09 15:53:51;;;;;;;;;;;;;;;;;;5016619;28;5260;-63
2023/10/09 15:56:17;;;;;;;;;;;;;;;;;;5014261;28;4622;-63
2023/10/09 15:58:43;;;;;;;;;;;;;;;;;;5024657;28;2507;-61
2023/10/09 16:01:12;;;;;;;;;;;;;;;;;;5011022;28;5028;-63
2023/10/09 16:03:38;;;;;;;;;;;;;;;;;;5009932;28;5717;-65
2023/10/09 16:06:05;;;;;;;;;;;;;;;;;;5015446;28;5134;-65
2023/10/09 16:08:31;;;;;;;;;;;;;;;;;;5006004;28;4507;-63
2023/10/09 16:10:58;;;;;;;;;;;;;;;;;;4999802;28;3494;-61
2023/10/09 16:13:23;;;;;;;;;;;;;;;;;;5013114;28;4970;-62
2023/10/09 16:15:49;;;;;;;;;;;;;;;;;;5007889;28;5138;-60
2023/10/09 16:18:14;;;;;;;;;;;;;;;;;;5020371;28;5682;-55
2023/10/09 16:20:39;;;;;;;;;;;;;;;;;;5022591;28;5084;-57
2023/10/09 16:23:04;;;;;;;;;;;;;;;;;;5018148;28;3584;-56
2023/10/09 16:25:30;;;;;;;;;;;;;;;;;;5016533;28;4988;-57
2023/10/09 16:27:58;;;;;;;;;;;;;;;;;;5012234;28;5125;-57
2023/10/09 16:30:23;;;;;;;;;;;;;;;;;;5017527;28;5030;-56
2023/10/09 16:32:51;;;;;;;;;;;;;;;;;;5006193;28;5590;-53
2023/10/09 16:35:17;;;;;;;;;;;;;;;;;;5020300;28;5253;-57
2023/10/09 16:37:42;;;;;;;;;;;;;;;;;;5016765;28;3348;-54
2023/10/09 16:40:20;;;;;;;;;;;;;;;;;;5011610;28;5107;-58
2023/10/09 16:42:45;;;;;;;;;;;;;;;;;;5017381;28;5095;-58
2023/10/09 16:45:15;;;;;;;;;;;;;;;;;;4997256;28;4584;-59
2023/10/09 16:47:54;;;;;;;;;;;;;;;;;;5009714;28;5641;-57
2023/10/09 16:50:25;;;;;;;;;;;;;;;;;;5018196;28;5906;-56
2023/10/09 16:52:50;;;;;;;;;;;;;;;;;;5013553;28;3530;-62
2023/10/09 16:55:18;;;;;;;;;;;;;;;;;;4992635;28;4979;-62
2023/10/09 16:57:46;;;;;;;;;;;;;;;;;;5016252;28;5089;-62
2023/10/09 17:00:18;;;;;;;;;;;;;;;;;;5009029;28;5040;-62
2023/10/09 17:02:47;;;;;;;;;;;;;;;;;;5009677;28;5373;-62
2023/10/09 17:05:12;;;;;;;;;;;;;;;;;;5009966;28;3461;-62
2023/10/09 17:07:44;;;;;;;;;;;;;;;;;;5009456;28;4983;-58
2023/10/09 17:10:14;;;;;;;;;;;;;;;;;;5001247;28;5109;-59
2023/10/09 17:12:46;;;;;;;;;;;;;;;;;;4998730;28;5254;-58
2023/10/09 17:15:14;;;;;;;;;;;;;;;;;;4987425;28;5067;-60
2023/10/09 17:17:42;;;;;;;;;;;;;;;;;;4979851;28;5195;-61
2023/10/09 17:20:10;;;;;;;;;;;;;;;;;;5008556;28;3342;-59
2023/10/09 17:22:35;;;;;;;;;;;;;;;;;;4994983;28;5054;-58
2023/10/09 17:25:02;;;;;;;;;;;;;;;;;;4994828;28;5043;-58
2023/10/09 17:27:28;;;;;;;;;;;;;;;;;;4993394;28;4676;-60
2023/10/09 17:29:57;;;;;;;;;;;;;;;;;;4981804;28;5097;-62
2023/10/09 17:32:22;;;;;;;;;;;;;;;;;;4994387;28;6076;-59
2023/10/09 17:34:48;;;;;;;;;;;;;;;;;;4995057;28;3487;-59
2023/10/09 17:37:13;;;;;;;;;;;;;;;;;;4991270;28;4812;-66
2023/10/09 17:39:39;;;;;;;;;;;;;;;;;;5004884;28;4681;-70
2023/10/09 17:42:04;;;;;;;;;;;;;;;;;;4999227;28;5059;-60
2023/10/09 17:44:30;;;;;;;;;;;;;;;;;;5005166;28;5351;-64
2023/10/09 17:46:55;;;;;;;;;;;;;;;;;;4998623;28;3493;-59
2023/10/09 17:49:24;;;;;;;;;;;;;;;;;;5003896;28;6051;-59
2023/10/09 17:51:49;;;;;;;;;;;;;;;;;;5006380;28;5164;-60
2023/10/09 17:54:14;;;;;;;;;;;;;;;;;;5010420;28;5309;-61
2023/10/09 17:56:40;;;;;;;;;;;;;;;;;;5009303;28;5173;-60
2023/10/09 17:59:11;;;;;;;;;;;;;;;;;;4993178;28;3325;-60
2023/10/09 18:01:36;;;;;;;;;;;;;;;;;;4982689;28;5384;-60
2023/10/09 18:04:02;;;;;;;;;;;;;;;;;;4992474;28;5667;-61
2023/10/09 18:06:28;;;;;;;;;;;;;;;;;;4992371;28;4988;-58
2023/10/09 18:08:53;;;;;;;;;;;;;;;;;;4985652;28;4939;-62
2023/10/09 18:11:18;;;;;;;;;;;;;;;;;;4989450;28;5084;-59
2023/10/09 18:13:44;;;;;;;;;;;;;;;;;;4973176;28;3388;-58
2023/10/09 18:16:16;;;;;;;;;;;;;;;;;;4987716;28;4463;-62
2023/10/09 18:18:41;;;;;;;;;;;;;;;;;;4992938;28;5582;-63
2023/10/09 18:21:07;;;;;;;;;;;;;;;;;;4978394;28;5036;-63
2023/10/09 18:23:33;;;;;;;;;;;;;;;;;;4997642;28;5123;-65
2023/10/09 18:26:01;;;;;;;;;;;;;;;;;;4998462;28;3632;-56
2023/10/09 18:28:26;;;;;;;;;;;;;;;;;;4993912;28;5077;-59
2023/10/09 18:30:52;;;;;;;;;;;;;;;;;;4987781;28;5109;-64
2023/10/09 18:33:17;;;;;;;;;;;;;;;;;;4999075;28;5051;-64
2023/10/09 18:35:43;;;;;;;;;;;;;;;;;;5001351;28;4895;-64
2023/10/09 18:38:09;;;;;;;;;;;;;;;;;;5000482;28;3382;-65
2023/10/09 18:40:36;;;;;;;;;;;;;;;;;;5003467;28;4979;-63
2023/10/09 18:43:03;;;;;;;;;;;;;;;;;;4994533;28;4506;-62
2023/10/09 18:45:30;;;;;;;;;;;;;;;;;;4964236;28;4727;-60
2023/10/09 18:47:56;;;;;;;;;;;;;;;;;;4993563;28;4895;-64
2023/10/09 18:50:21;;;;;;;;;;;;;;;;;;5005945;28;5219;-65
2023/10/09 18:52:49;;;;;;;;;;;;;;;;;;4966609;28;3381;-66
2023/10/09 18:55:14;;;;;;;;;;;;;;;;;;5001298;28;4859;-64
2023/10/09 18:57:40;;;;;;;;;;;;;;;;;;4998766;28;5108;-65
2023/10/09 19:00:12;;;;;;;;;;;;;;;;;;5005962;28;5000;-67
2023/10/09 19:02:38;;;;;;;;;;;;;;;;;;5022165;28;4899;-66
2023/10/09 19:05:07;;;;;;;;;;;;;;;;;;5020875;28;3450;-66
2023/10/09 19:07:33;;;;;;;;;;;;;;;;;;5018582;28;5108;-59
2023/10/09 19:10:00;;;;;;;;;;;;;;;;;;5013246;28;5091;-68